Time;durP1;ratioP1;P1;durP2;ratioP2;P2;SDS_P1;SDS_P2;PMS_P1;PMS_P2;Temp;Humidity;BMP_temperature;BMP_pressure;BME280_temperature;BME280_humidity;BME280_pressure;Samples;Min_cycle;Max_cycle;Signal;HPM_P1;HPM_P2
2022/08/15 00:00:29;;;;;;;9.10;5.10;;;;;;;26.94;40.25;98661.94;4465852;32;33580;-64
2022/08/15 00:03:00;;;;;;;8.57;5.95;;;;;;;27.03;40.24;98663.22;4462866;32;33381;-64
2022/08/15 00:05:38;;;;;;;9.43;6.28;;;;;;;26.88;40.63;98668.41;4456701;32;33832;-64
2022/08/15 00:08:09;;;;;;;9.13;6.15;;;;;;;26.69;40.97;98662.31;4452218;32;32943;-64
2022/08/15 00:11:19;;;;;;;8.73;6.40;;;;;;;26.76;40.88;98662.16;4452758;32;34695;-65
2022/08/15 00:13:56;;;;;;;8.07;5.80;;;;;;;26.65;41.15;98658.38;4453174;32;32719;-63
2022/08/15 00:16:32;;;;;;;7.55;5.70;;;;;;;26.68;41.11;98663.38;4463367;32;33734;-64
2022/08/15 00:19:08;;;;;;;9.00;6.23;;;;;;;26.52;41.44;98665.00;4457133;32;34076;-64
2022/08/15 00:21:39;;;;;;;10.32;6.05;;;;;;;26.58;41.30;98663.16;4453895;32;33413;-63
2022/08/15 00:24:09;;;;;;;10.10;6.78;;;;;;;26.51;41.41;98667.97;4465726;32;33887;-63
2022/08/15 00:26:49;;;;;;;8.52;6.22;;;;;;;26.34;41.80;98673.38;4454983;32;35781;-63
2022/08/15 00:29:24;;;;;;;8.35;5.93;;;;;;;26.05;42.46;98665.09;4465760;32;33993;-64
2022/08/15 00:32:11;;;;;;;7.65;5.05;;;;;;;26.20;42.08;98664.59;4456199;32;34492;-65
2022/08/15 00:34:59;;;;;;;8.88;5.57;;;;;;;26.24;41.94;98661.09;4462726;32;35045;-62
2022/08/15 00:37:27;;;;;;;8.85;6.40;;;;;;;26.36;41.67;98658.34;4464229;32;33852;-63
2022/08/15 00:39:56;;;;;;;9.07;5.93;;;;;;;26.28;41.76;98655.97;4455474;32;34146;-63
2022/08/15 00:42:24;;;;;;;9.18;6.37;;;;;;;26.37;41.63;98660.00;4459078;32;33352;-64
2022/08/15 00:44:58;;;;;;;8.57;6.00;;;;;;;26.30;41.73;98651.09;4464451;32;33912;-63
2022/08/15 00:47:34;;;;;;;8.55;5.85;;;;;;;26.39;41.60;98654.28;4458328;32;33834;-63
2022/08/15 00:50:08;;;;;;;11.52;7.00;;;;;;;26.41;41.47;98657.59;4464871;32;34291;-63
2022/08/15 00:52:56;;;;;;;9.30;6.12;;;;;;;26.40;41.61;98665.00;4439384;32;34112;-63
2022/08/15 00:55:27;;;;;;;10.07;5.47;;;;;;;26.50;41.64;98669.06;4443253;32;33647;-62
2022/08/15 00:58:00;;;;;;;7.50;5.70;;;;;;;26.42;41.81;98665.59;4445731;32;35531;-64
2022/08/15 01:00:40;;;;;;;8.88;6.97;;;;;;;26.50;41.59;98664.41;4451540;32;34213;-63
2022/08/15 01:03:21;;;;;;;9.15;6.18;;;;;;;26.43;41.58;98659.03;4451348;32;33511;-63
2022/08/15 01:05:54;;;;;;;8.65;6.05;;;;;;;26.45;41.78;98656.03;4453698;32;33863;-64
2022/08/15 01:08:32;;;;;;;8.07;5.70;;;;;;;26.44;41.98;98655.19;4455924;32;35164;-62
2022/08/15 01:11:22;;;;;;;11.15;7.20;;;;;;;26.36;41.94;98654.78;4454576;32;32818;-62
2022/08/15 01:13:52;;;;;;;8.88;6.70;;;;;;;26.41;41.75;98661.16;4450256;32;32340;-62
2022/08/15 01:16:33;;;;;;;8.07;6.03;;;;;;;26.41;41.79;98660.34;4449601;32;34961;-62
2022/08/15 01:19:19;;;;;;;9.50;6.37;;;;;;;26.31;42.06;98669.19;4467433;32;33918;-62
2022/08/15 01:21:49;;;;;;;10.15;6.78;;;;;;;26.33;42.09;98669.81;4455246;32;34080;-63
2022/08/15 01:24:49;;;;;;;9.25;6.40;;;;;;;26.04;42.78;98670.81;4457507;32;34643;-63
2022/08/15 01:27:41;;;;;;;10.43;6.62;;;;;;;26.15;42.49;98665.31;4452114;32;33827;-64
2022/08/15 01:30:12;;;;;;;9.07;6.62;;;;;;;26.07;42.60;98673.06;4456376;32;32855;-64
2022/08/15 01:33:00;;;;;;;7.65;5.03;;;;;;;26.03;42.40;98678.19;4459477;32;32858;-62
2022/08/15 01:35:30;;;;;;;8.38;5.97;;;;;;;25.88;42.28;98681.44;4460499;32;35480;-64
2022/08/15 01:37:58;;;;;;;8.18;5.50;;;;;;;25.94;42.08;98677.75;4460105;32;33790;-63
2022/08/15 01:41:06;;;;;;;8.65;6.03;;;;;;;25.95;42.04;98684.88;4440622;32;34054;-63
2022/08/15 01:43:48;;;;;;;7.62;5.85;;;;;;;25.97;41.90;98679.16;4451467;32;32757;-63
2022/08/15 01:46:23;;;;;;;9.07;5.22;;;;;;;25.83;42.19;98673.09;4453374;32;33262;-63
2022/08/15 01:49:04;;;;;;;6.22;4.62;;;;;;;25.84;42.18;98677.50;4450034;32;32983;-63
2022/08/15 01:51:32;;;;;;;8.60;6.43;;;;;;;25.68;42.68;98680.94;4448266;32;35147;-63
2022/08/15 01:54:07;;;;;;;8.68;6.22;;;;;;;25.72;42.61;98677.50;4465212;32;33814;-64
2022/08/15 01:56:42;;;;;;;9.10;5.87;;;;;;;25.82;42.46;98681.56;4455661;32;33855;-63
2022/08/15 01:59:20;;;;;;;9.25;6.62;;;;;;;25.70;42.91;98676.88;4468548;32;34935;-63
2022/08/15 02:02:16;;;;;;;8.55;6.03;;;;;;;25.51;43.67;98683.56;4462087;32;34106;-63
2022/08/15 02:05:05;;;;;;;9.82;6.10;;;;;;;25.64;43.49;98677.84;4462974;32;33829;-63
2022/08/15 02:07:36;;;;;;;9.63;6.47;;;;;;;25.66;43.53;98686.66;4463546;32;32482;-63
2022/08/15 02:10:16;;;;;;;10.57;6.45;;;;;;;25.66;43.55;98685.84;4456497;32;33668;-63
2022/08/15 02:12:49;;;;;;;7.97;5.90;;;;;;;25.62;43.64;98681.87;4454001;32;35149;-62
2022/08/15 02:15:37;;;;;;;7.45;5.28;;;;;;;25.70;43.54;98687.03;4463901;32;33901;-63
2022/08/15 02:18:05;;;;;;;10.20;7.43;;;;;;;25.55;43.98;98690.22;4466418;32;33273;-63
2022/08/15 02:20:33;;;;;;;9.25;6.57;;;;;;;25.32;44.53;98674.59;4455835;32;34113;-62
2022/08/15 02:23:07;;;;;;;8.45;4.85;;;;;;;25.27;44.78;98683.53;4452672;32;35271;-63
2022/08/15 02:25:48;;;;;;;9.07;5.80;;;;;;;25.36;44.73;98680.44;4460485;32;34251;-62
2022/08/15 02:28:16;;;;;;;9.48;5.75;;;;;;;25.35;44.86;98687.81;4466160;32;33362;-63
2022/08/15 02:31:08;;;;;;;9.40;6.50;;;;;;;25.40;44.72;98684.41;4456577;32;33653;-63
2022/08/15 02:33:38;;;;;;;10.15;6.93;;;;;;;25.27;44.82;98680.81;4453349;32;33687;-63
2022/08/15 02:36:11;;;;;;;10.35;6.55;;;;;;;25.46;44.40;98686.19;4453173;32;32505;-63
2022/08/15 02:38:39;;;;;;;10.75;6.50;;;;;;;25.55;44.15;98674.66;4460915;32;33408;-62
2022/08/15 02:41:23;;;;;;;11.63;7.15;;;;;;;25.56;44.11;98678.22;4456580;32;35107;-63
2022/08/15 02:43:51;;;;;;;9.98;7.25;;;;;;;25.55;44.30;98687.47;4459679;32;33650;-63
2022/08/15 02:46:20;;;;;;;11.45;7.70;;;;;;;25.48;44.45;98678.56;4463499;32;33929;-63
2022/08/15 02:48:58;;;;;;;10.32;7.47;;;;;;;25.25;44.97;98682.09;4462914;32;33430;-63
2022/08/15 02:51:28;;;;;;;9.52;7.18;;;;;;;25.30;44.79;98677.59;4464759;32;32452;-62
2022/08/15 02:54:16;;;;;;;12.35;7.68;;;;;;;25.21;44.95;98673.53;4467894;32;34136;-63
2022/08/15 02:57:04;;;;;;;10.10;6.62;;;;;;;25.32;45.01;98672.69;4456150;32;34552;-62
2022/08/15 02:59:33;;;;;;;8.77;5.75;;;;;;;25.45;44.62;98668.06;4452951;32;34734;-62
2022/08/15 03:02:05;;;;;;;9.10;6.62;;;;;;;25.49;44.42;98666.50;4453748;32;33952;-62
2022/08/15 03:04:52;;;;;;;10.88;6.82;;;;;;;25.22;44.88;98669.72;4456805;32;33876;-61
2022/08/15 03:07:21;;;;;;;9.85;7.10;;;;;;;25.25;44.84;98666.50;4458748;32;34199;-61
2022/08/15 03:09:49;;;;;;;11.63;8.65;;;;;;;25.05;45.30;98665.97;4453880;32;34502;-61
2022/08/15 03:12:25;;;;;;;11.27;7.47;;;;;;;25.03;45.37;98666.19;4464795;32;33934;-62
2022/08/15 03:15:03;;;;;;;11.02;7.43;;;;;;;24.86;45.70;98666.03;4460870;32;34262;-65
2022/08/15 03:17:31;;;;;;;10.68;6.97;;;;;;;24.95;45.50;98666.53;4454816;32;35222;-63
2022/08/15 03:20:05;;;;;;;10.23;7.05;;;;;;;25.06;45.22;98662.16;4465004;32;34777;-62
2022/08/15 03:22:45;;;;;;;10.18;7.53;;;;;;;25.09;45.12;98665.25;4454776;32;35028;-63
2022/08/15 03:25:16;;;;;;;9.48;6.68;;;;;;;24.97;45.25;98666.28;4465924;32;32070;-62
2022/08/15 03:27:44;;;;;;;8.63;6.28;;;;;;;25.04;44.95;98669.75;4457737;32;34692;-63
2022/08/15 03:30:14;;;;;;;10.63;6.75;;;;;;;25.02;44.90;98674.66;4452208;32;34913;-62
2022/08/15 03:32:53;;;;;;;10.45;4.93;;;;;;;24.95;45.12;98679.41;4464904;32;33627;-63
2022/08/15 03:35:23;;;;;;;8.40;5.22;;;;;;;25.07;44.86;98675.63;4445091;32;33788;-62
2022/08/15 03:37:58;;;;;;;9.18;6.85;;;;;;;25.03;44.94;98677.13;4451219;32;33969;-62
2022/08/15 03:40:34;;;;;;;8.48;6.70;;;;;;;25.07;44.70;98680.22;4453182;32;33531;-62
2022/08/15 03:43:05;;;;;;;12.80;6.65;;;;;;;24.96;44.44;98681.06;4453621;32;34561;-63
2022/08/15 03:45:43;;;;;;;12.00;7.15;;;;;;;24.90;44.55;98690.19;4466523;32;33602;-62
2022/08/15 03:48:12;;;;;;;11.43;7.97;;;;;;;24.81;44.90;98684.22;4464766;32;33971;-61
2022/08/15 03:50:55;;;;;;;10.98;7.15;;;;;;;24.75;45.06;98688.72;4464848;32;33687;-61
2022/08/15 03:53:33;;;;;;;9.10;6.37;;;;;;;24.60;45.44;98680.09;4462468;32;32906;-62
2022/08/15 03:56:02;;;;;;;10.88;6.85;;;;;;;24.53;45.43;98693.03;4451985;32;35361;-61
2022/08/15 03:58:31;;;;;;;12.60;7.57;;;;;;;24.60;45.47;98694.59;4455243;32;33975;-62
2022/08/15 04:01:06;;;;;;;10.07;5.15;;;;;;;24.52;45.65;98694.91;4453000;32;33328;-62
2022/08/15 04:03:34;;;;;;;12.68;6.45;;;;;;;24.62;45.40;98691.63;4464603;32;33545;-62
2022/08/15 04:06:06;;;;;;;7.78;4.90;;;;;;;24.58;45.44;98696.72;4462013;32;33839;-63
2022/08/15 04:08:43;;;;;;;9.57;6.57;;;;;;;24.59;45.51;98694.81;4458270;32;35240;-63
2022/08/15 04:11:30;;;;;;;11.80;6.97;;;;;;;24.62;45.44;98699.81;4458173;32;34505;-63
2022/08/15 04:14:06;;;;;;;9.10;6.25;;;;;;;24.63;45.40;98699.63;4454809;32;33491;-62
2022/08/15 04:16:59;;;;;;;11.52;7.60;;;;;;;24.69;45.35;98702.47;4446549;32;32608;-63
2022/08/15 04:19:39;;;;;;;8.85;4.82;;;;;;;24.80;45.07;98701.69;4452725;32;34022;-63
2022/08/15 04:22:17;;;;;;;9.02;5.80;;;;;;;24.80;45.07;98694.31;4458389;32;34649;-63
2022/08/15 04:25:11;;;;;;;9.50;7.20;;;;;;;24.91;44.91;98694.59;4444071;32;33311;-63
2022/08/15 04:27:49;;;;;;;11.02;5.53;;;;;;;24.90;45.02;98703.88;4458420;32;35301;-62
2022/08/15 04:30:22;;;;;;;9.55;6.60;;;;;;;25.03;44.80;98695.47;4457243;32;32847;-62
2022/08/15 04:32:52;;;;;;;9.63;6.40;;;;;;;25.08;44.76;98701.09;4451937;32;34837;-63
2022/08/15 04:35:28;;;;;;;10.75;7.37;;;;;;;25.06;44.87;98700.47;4453786;32;32599;-63
2022/08/15 04:37:58;;;;;;;8.82;6.03;;;;;;;25.18;44.52;98700.53;4459684;32;32744;-62
2022/08/15 04:40:28;;;;;;;10.23;6.68;;;;;;;25.18;44.17;98706.84;4460186;32;35731;-63
2022/08/15 04:43:19;;;;;;;9.48;6.62;;;;;;;25.22;43.99;98702.56;4456011;32;33607;-64
2022/08/15 04:45:48;;;;;;;10.55;6.70;;;;;;;25.29;43.83;98703.28;4457873;32;34708;-62
2022/08/15 04:48:18;;;;;;;8.07;6.43;;;;;;;25.20;43.76;98707.47;4465852;32;32627;-61
2022/08/15 04:50:49;;;;;;;9.48;6.60;;;;;;;25.17;43.92;98712.53;4452404;32;34820;-62
2022/08/15 04:53:21;;;;;;;7.93;5.45;;;;;;;25.31;43.60;98714.84;4454890;32;32030;-62
2022/08/15 04:55:59;;;;;;;10.80;5.78;;;;;;;25.46;43.53;98711.69;4459511;32;33662;-62
2022/08/15 04:58:31;;;;;;;8.75;6.30;;;;;;;25.60;43.29;98709.53;4458320;32;33882;-63
2022/08/15 05:01:19;;;;;;;9.05;6.60;;;;;;;25.32;43.68;98705.56;4464477;32;32729;-63
2022/08/15 05:03:50;;;;;;;10.10;6.72;;;;;;;25.42;43.50;98704.16;4449197;32;35502;-62
2022/08/15 05:06:21;;;;;;;11.18;6.93;;;;;;;25.39;43.51;98701.88;4462522;32;33711;-63
2022/08/15 05:09:00;;;;;;;9.60;6.40;;;;;;;25.39;43.66;98702.72;4456268;32;34103;-63
2022/08/15 05:11:29;;;;;;;9.25;6.22;;;;;;;25.53;43.62;98692.38;4464083;32;33724;-62
2022/08/15 05:14:18;;;;;;;9.68;6.18;;;;;;;25.67;43.50;98702.03;4456068;32;33619;-62
2022/08/15 05:17:07;;;;;;;11.38;6.43;;;;;;;25.79;43.47;98691.06;4454536;32;32565;-63
2022/08/15 05:19:37;;;;;;;12.37;6.55;;;;;;;25.83;43.72;98692.28;4452015;32;34364;-62
2022/08/15 05:22:05;;;;;;;11.18;6.80;;;;;;;25.99;43.57;98687.97;4448393;32;35247;-63
2022/08/15 05:24:32;;;;;;;11.32;6.68;;;;;;;26.08;43.59;98686.53;4457309;32;33637;-62
2022/08/15 05:27:00;;;;;;;9.95;5.95;;;;;;;26.16;43.45;98688.06;4454719;32;32670;-62
2022/08/15 05:29:30;;;;;;;9.82;6.32;;;;;;;26.10;43.77;98686.28;4458920;32;33767;-62
2022/08/15 05:31:58;;;;;;;10.98;6.25;;;;;;;25.97;44.23;98682.75;4457561;32;34123;-62
2022/08/15 05:34:28;;;;;;;10.27;6.90;;;;;;;26.01;44.36;98689.41;4457502;32;32466;-64
2022/08/15 05:37:12;;;;;;;8.87;6.47;;;;;;;26.18;44.04;98692.25;4449387;32;32629;-62
2022/08/15 05:39:42;;;;;;;10.50;6.90;;;;;;;26.38;43.49;98683.59;4450072;32;34838;-63
2022/08/15 05:42:35;;;;;;;10.00;6.50;;;;;;;26.46;43.03;98685.16;4442454;32;33991;-63
2022/08/15 05:45:30;;;;;;;11.35;6.28;;;;;;;26.58;43.03;98685.97;4450889;32;32241;-63
2022/08/15 05:48:14;;;;;;;9.15;6.70;;;;;;;26.86;42.24;98690.59;4457695;32;34847;-62
2022/08/15 05:51:02;;;;;;;9.95;6.10;;;;;;;26.68;42.77;98685.34;4458753;32;33873;-63
2022/08/15 05:53:51;;;;;;;9.40;6.10;;;;;;;27.16;42.16;98687.63;4439385;32;33046;-63
2022/08/15 05:56:21;;;;;;;10.13;5.90;;;;;;;27.52;41.56;98692.88;4456270;32;33519;-63
2022/08/15 05:58:59;;;;;;;10.43;6.15;;;;;;;27.70;41.19;98689.03;4454601;32;34584;-62
2022/08/15 06:01:36;;;;;;;10.15;6.35;;;;;;;27.76;41.13;98690.78;4450324;32;34087;-63
2022/08/15 06:04:32;;;;;;;12.32;6.30;;;;;;;27.99;41.06;98693.34;4446357;32;33011;-62
2022/08/15 06:07:06;;;;;;;10.07;6.43;;;;;;;28.18;40.54;98695.78;4447802;32;34719;-63
2022/08/15 06:09:39;;;;;;;10.73;7.03;;;;;;;28.25;40.20;98696.44;4449222;32;33557;-63
2022/08/15 06:12:32;;;;;;;9.65;6.37;;;;;;;28.13;40.43;98698.50;4454553;32;33979;-64
2022/08/15 06:15:11;;;;;;;10.40;7.03;;;;;;;28.18;40.43;98696.63;4449888;32;34100;-63
2022/08/15 06:17:42;;;;;;;10.55;6.03;;;;;;;28.34;39.95;98698.47;4443924;32;34822;-63
2022/08/15 06:20:21;;;;;;;12.30;6.55;;;;;;;28.34;40.29;98698.47;4454803;32;34746;-63
2022/08/15 06:23:20;;;;;;;10.32;7.37;;;;;;;28.14;40.63;98700.16;4455360;32;34103;-64
2022/08/15 06:26:31;;;;;;;11.32;6.85;;;;;;;27.87;41.26;98703.63;4445366;32;33927;-64
2022/08/15 06:29:17;;;;;;;12.50;7.35;;;;;;;28.00;41.36;98695.03;4432301;32;33490;-63
2022/08/15 06:32:03;;;;;;;12.30;7.50;;;;;;;27.95;40.86;98697.69;4463055;32;33972;-63
2022/08/15 06:35:10;;;;;;;11.93;6.70;;;;;;;28.41;40.67;98694.75;4456225;32;33866;-63
2022/08/15 06:38:14;;;;;;;10.73;6.65;;;;;;;28.44;40.82;98696.97;4446551;32;34232;-63
2022/08/15 06:41:06;;;;;;;14.75;7.40;;;;;;;28.60;40.89;98695.25;4450647;32;33546;-64
2022/08/15 06:43:35;;;;;;;9.38;6.80;;;;;;;28.56;40.80;98697.69;4454544;32;33851;-63
2022/08/15 06:46:04;;;;;;;10.38;7.65;;;;;;;28.70;39.75;98698.97;4446639;32;34176;-63
2022/08/15 06:48:54;;;;;;;10.07;7.18;;;;;;;28.85;39.86;98695.53;4445262;32;33024;-64
2022/08/15 06:51:36;;;;;;;11.73;7.62;;;;;;;28.90;39.99;98703.03;4450818;32;34456;-63
2022/08/15 06:54:23;;;;;;;11.77;7.03;;;;;;;28.92;39.89;98689.81;4456022;32;33719;-63
2022/08/15 06:57:37;;;;;;;13.00;7.07;;;;;;;29.13;39.88;98691.72;4453153;32;34851;-63
2022/08/15 07:00:09;;;;;;;10.73;7.18;;;;;;;28.97;40.20;98687.12;4452720;32;34202;-63
2022/08/15 07:03:05;;;;;;;10.90;7.10;;;;;;;28.63;40.70;98691.97;4447845;32;33626;-63
2022/08/15 07:05:40;;;;;;;11.70;8.35;;;;;;;29.17;39.93;98697.53;4453765;32;33884;-63
2022/08/15 07:08:19;;;;;;;10.13;6.95;;;;;;;29.11;39.81;98693.06;4458931;32;35165;-63
2022/08/15 07:10:52;;;;;;;12.85;7.25;;;;;;;29.21;39.45;98685.75;4437280;32;35294;-63
2022/08/15 07:13:29;;;;;;;10.45;7.60;;;;;;;29.51;38.83;98691.78;4441623;32;33673;-62
2022/08/15 07:16:02;;;;;;;10.35;7.43;;;;;;;29.42;38.78;98695.00;4439322;32;34112;-63
2022/08/15 07:18:39;;;;;;;9.02;6.65;;;;;;;29.63;37.83;98697.94;4440980;32;31304;-63
2022/08/15 07:21:17;;;;;;;11.60;7.35;;;;;;;29.65;38.18;98693.00;4453123;32;34990;-63
2022/08/15 07:24:04;;;;;;;10.13;6.90;;;;;;;29.58;38.12;98697.87;4451439;32;33456;-63
2022/08/15 07:26:59;;;;;;;;;;;;;;;29.31;38.40;98696.03;4451367;32;35768;-63
2022/08/15 07:29:31;;;;;;;11.83;7.10;;;;;;;29.16;39.58;98690.37;4453915;32;34953;-63
2022/08/15 07:32:17;;;;;;;10.50;7.03;;;;;;;29.16;39.78;98698.63;4457328;32;35136;-62
2022/08/15 07:35:17;;;;;;;13.27;7.00;;;;;;;29.39;38.96;98700.22;4454294;32;34581;-63
2022/08/15 07:38:00;;;;;;;10.70;7.35;;;;;;;28.97;40.09;98698.16;4449104;32;34148;-64
2022/08/15 07:40:37;;;;;;;14.63;7.80;;;;;;;29.12;39.80;98706.59;4456368;32;33985;-63
2022/08/15 07:43:32;;;;;;;12.32;6.90;;;;;;;29.17;39.31;98703.88;4455403;32;32876;-63
2022/08/15 07:46:25;;;;;;;11.20;7.18;;;;;;;29.61;38.91;98700.97;4452082;32;33654;-64
2022/08/15 07:48:58;;;;;;;13.60;7.62;;;;;;;29.22;39.79;98701.19;4439718;32;33416;-63
2022/08/15 07:51:29;;;;;;;8.98;6.80;;;;;;;29.44;39.24;98703.84;4450827;32;32625;-64
2022/08/15 07:54:19;;;;;;;16.48;7.32;;;;;;;29.60;37.76;98702.09;4461708;32;34016;-63
2022/08/15 07:57:19;;;;;;;12.05;8.43;;;;;;;29.60;38.21;98704.84;4453249;32;33543;-63
2022/08/15 08:00:26;;;;;;;10.82;7.55;;;;;;;29.19;39.35;98706.37;4452395;32;33963;-63
2022/08/15 08:03:23;;;;;;;9.95;6.30;;;;;;;29.52;39.11;98705.28;4450554;32;34086;-63
2022/08/15 08:06:19;;;;;;;8.63;6.47;;;;;;;29.65;38.74;98704.84;4443129;32;35108;-63
2022/08/15 08:09:29;;;;;;;9.77;6.95;;;;;;;30.00;37.87;98700.69;4457283;32;33475;-63
2022/08/15 08:12:18;;;;;;;9.00;6.55;;;;;;;30.01;37.86;98701.50;4450453;32;35048;-63
2022/08/15 08:15:12;;;;;;;9.65;6.53;;;;;;;29.70;37.49;98702.16;4456717;32;33890;-63
2022/08/15 08:18:02;;;;;;;8.00;5.82;;;;;;;30.07;37.72;98698.50;4449915;32;35126;-63
2022/08/15 08:20:52;;;;;;;8.65;6.22;;;;;;;29.62;36.69;98708.16;4438604;32;33641;-63
2022/08/15 08:23:48;;;;;;;10.75;6.53;;;;;;;29.91;35.73;98705.03;4447455;32;32608;-63
2022/08/15 08:26:28;;;;;;;9.18;6.93;;;;;;;30.34;35.75;98703.94;4443012;32;33042;-63
2022/08/15 08:29:04;;;;;;;10.50;6.35;;;;;;;30.25;36.64;98700.03;4443005;32;35786;-63
2022/08/15 08:31:57;;;;;;;12.25;7.45;;;;;;;30.36;35.39;98695.38;4456641;32;33536;-63
2022/08/15 08:34:36;;;;;;;9.02;6.12;;;;;;;30.23;35.94;98699.47;4440939;32;33589;-64
2022/08/15 08:37:26;;;;;;;9.07;6.07;;;;;;;30.38;35.18;98701.47;4455743;32;33177;-64
2022/08/15 08:43:00;;;;;;;;;;;;;;;30.40;34.76;98705.63;4445447;32;32025;-63
2022/08/15 08:45:50;;;;;;;9.15;6.03;;;;;;;30.72;34.86;98703.78;4447551;32;34270;-63
2022/08/15 08:48:36;;;;;;;10.75;6.70;;;;;;;30.74;34.22;98699.66;4452458;32;33801;-63
2022/08/15 08:51:22;;;;;;;8.85;5.90;;;;;;;30.28;35.03;98698.66;4456003;32;35196;-64
2022/08/15 08:54:35;;;;;;;8.77;6.22;;;;;;;30.53;34.36;98698.78;4445015;32;33643;-63
2022/08/15 08:57:26;;;;;;;10.57;6.25;;;;;;;30.79;34.54;98690.59;4443695;32;33915;-63
2022/08/15 09:00:03;;;;;;;9.52;6.47;;;;;;;30.57;34.35;98704.59;4445280;32;34954;-63
2022/08/15 09:02:40;;;;;;;7.60;5.62;;;;;;;30.85;33.96;98695.88;4459336;32;34969;-63
2022/08/15 09:05:35;;;;;;;10.10;6.40;;;;;;;30.46;33.51;98692.66;4462796;32;33601;-63
2022/08/15 09:08:24;;;;;;;9.50;6.20;;;;;;;31.00;33.54;98691.47;4449234;32;33954;-64
2022/08/15 09:11:22;;;;;;;9.48;6.03;;;;;;;31.42;32.48;98690.44;4453808;32;33047;-63
2022/08/15 09:13:51;;;;;;;8.45;6.18;;;;;;;31.19;32.54;98683.47;4460895;32;34121;-63
2022/08/15 09:16:26;;;;;;;7.93;4.62;;;;;;;31.34;31.77;98691.00;4449802;32;33662;-63
2022/08/15 09:19:04;;;;;;;11.38;5.82;;;;;;;31.23;30.93;98688.16;4445423;32;34590;-63
2022/08/15 09:21:42;;;;;;;8.70;5.20;;;;;;;31.71;30.06;98683.22;4454321;32;34152;-63
2022/08/15 09:24:13;;;;;;;8.93;5.70;;;;;;;31.59;30.75;98681.84;4461975;32;35245;-63
2022/08/15 09:27:18;;;;;;;8.48;5.75;;;;;;;31.72;30.53;98684.06;4446961;32;33554;-64
2022/08/15 09:29:58;;;;;;;8.07;5.43;;;;;;;32.33;29.61;98677.53;4457691;32;33969;-64
2022/08/15 09:32:28;;;;;;;8.95;5.97;;;;;;;32.02;29.97;98674.91;4463376;32;33036;-64
2022/08/15 09:35:23;;;;;;;9.55;5.85;;;;;;;31.66;31.07;98680.47;4452714;32;33943;-64
2022/08/15 09:37:55;;;;;;;8.10;5.57;;;;;;;31.94;30.64;98675.44;4450212;32;34363;-63
2022/08/15 09:40:28;;;;;;;8.68;5.10;;;;;;;32.33;29.93;98677.53;4453179;32;34085;-64
2022/08/15 09:43:55;;;;;;;8.75;4.95;;;;;;;32.25;28.11;98681.72;4463129;32;33978;-64
2022/08/15 09:47:00;;;;;;;6.65;4.35;;;;;;;31.84;28.57;98684.56;4447901;32;33956;-64
2022/08/15 09:50:06;;;;;;;6.78;4.78;;;;;;;32.00;27.85;98669.63;4459063;32;33140;-64
2022/08/15 09:53:22;;;;;;;11.55;5.47;;;;;;;32.22;28.13;98668.47;4464693;32;34932;-64
2022/08/15 09:55:52;;;;;;;11.15;5.15;;;;;;;32.35;28.85;98662.31;4458201;32;33501;-64
2022/08/15 09:58:26;;;;;;;9.10;4.45;;;;;;;32.81;26.55;98664.88;4440935;32;35210;-63
2022/08/15 10:01:03;;;;;;;8.25;4.12;;;;;;;32.80;27.03;98662.38;4446658;32;34411;-63
2022/08/15 10:03:45;;;;;;;13.18;5.30;;;;;;;33.15;25.74;98658.56;4455101;32;34938;-64
2022/08/15 10:06:23;;;;;;;7.43;4.97;;;;;;;33.03;26.39;98660.88;4454365;32;33892;-64
2022/08/15 10:09:21;;;;;;;6.53;3.72;;;;;;;32.89;25.86;98655.94;4438194;32;33850;-64
2022/08/15 10:12:09;;;;;;;8.18;4.60;;;;;;;32.61;25.65;98651.13;4439310;32;32513;-64
2022/08/15 10:14:42;;;;;;;7.90;4.20;;;;;;;33.17;25.57;98646.09;4455089;32;33247;-64
2022/08/15 10:17:35;;;;;;;7.45;4.18;;;;;;;33.70;24.85;98647.31;4461337;32;34804;-64
2022/08/15 10:20:15;;;;;;;6.87;4.35;;;;;;;33.69;24.91;98642.88;4442940;32;33639;-64
2022/08/15 10:22:52;;;;;;;7.03;3.90;;;;;;;33.23;24.99;98633.00;4459314;32;32341;-64
2022/08/15 10:25:28;;;;;;;5.70;3.90;;;;;;;34.10;23.87;98632.19;4455471;32;33640;-64
2022/08/15 10:28:12;;;;;;;7.47;3.75;;;;;;;34.64;22.21;98619.84;4444186;32;33725;-64
2022/08/15 10:31:02;;;;;;;5.82;3.72;;;;;;;34.54;22.96;98623.59;4461769;32;34108;-65
2022/08/15 10:33:38;;;;;;;5.80;3.87;;;;;;;34.02;24.37;98628.09;4457430;32;33256;-65
2022/08/15 10:36:14;;;;;;;5.68;3.97;;;;;;;33.95;24.40;98629.56;4439869;32;33388;-64
2022/08/15 10:39:13;;;;;;;7.03;4.65;;;;;;;34.64;23.48;98627.31;4456496;32;34112;-64
2022/08/15 10:41:52;;;;;;;;;;;;;;;34.70;23.81;98624.16;4453005;32;35242;-65
2022/08/15 10:44:30;;;;;;;6.25;4.35;;;;;;;34.43;23.48;98624.81;4463296;32;32762;-65
2022/08/15 10:47:26;;;;;;;6.30;4.18;;;;;;;34.00;23.46;98624.78;4465333;32;34643;-64
2022/08/15 10:50:00;;;;;;;6.43;4.07;;;;;;;34.38;23.01;98616.53;4444631;32;33908;-65
2022/08/15 10:52:38;;;;;;;6.12;4.15;;;;;;;33.99;22.97;98617.56;4462397;32;32433;-64
2022/08/15 10:55:28;;;;;;;5.72;3.70;;;;;;;34.42;23.06;98602.91;4460646;32;34253;-65
2022/08/15 10:58:32;;;;;;;7.90;4.90;;;;;;;34.67;23.62;98610.91;4452444;32;34070;-64
2022/08/15 11:01:06;;;;;;;6.97;3.95;;;;;;;34.51;22.80;98609.41;4454202;32;35220;-64
2022/08/15 11:03:41;;;;;;;6.45;4.28;;;;;;;34.64;22.24;98593.97;4447441;32;33943;-64
2022/08/15 11:06:29;;;;;;;8.50;4.57;;;;;;;34.59;23.34;98606.00;4444919;32;33656;-65
2022/08/15 11:09:08;;;;;;;8.05;4.60;;;;;;;35.25;23.79;98606.97;4460818;32;33753;-64
2022/08/15 11:11:38;;;;;;;7.62;4.93;;;;;;;35.23;23.48;98595.31;4451873;32;34815;-65
2022/08/15 11:14:14;;;;;;;6.72;4.30;;;;;;;34.72;24.43;98601.66;4457060;32;33085;-65
2022/08/15 11:16:58;;;;;;;6.35;4.37;;;;;;;34.44;23.79;98595.91;4433430;32;32254;-64
2022/08/15 11:19:33;;;;;;;6.80;4.60;;;;;;;34.04;23.41;98598.09;4445949;32;32496;-64
2022/08/15 11:22:29;;;;;;;8.15;4.62;;;;;;;33.85;24.09;98597.19;4458426;32;37270;-65
2022/08/15 11:25:07;;;;;;;7.15;4.93;;;;;;;33.68;24.80;98589.34;4454833;32;35245;-64
2022/08/15 11:27:36;;;;;;;8.13;4.40;;;;;;;34.29;24.17;98588.63;4457130;32;32549;-65
2022/08/15 11:30:08;;;;;;;6.55;4.10;;;;;;;34.65;23.69;98590.09;4451472;32;33805;-65
2022/08/15 11:32:50;;;;;;;9.45;4.60;;;;;;;34.83;23.76;98586.47;4457115;32;33893;-64
2022/08/15 11:35:31;;;;;;;7.07;4.85;;;;;;;34.60;23.69;98588.22;4453937;32;35687;-64
2022/08/15 11:38:05;;;;;;;6.75;3.75;;;;;;;34.59;22.80;98582.97;4436592;32;33454;-65
2022/08/15 11:40:52;;;;;;;7.37;4.00;;;;;;;34.61;22.30;98584.31;4458176;32;34780;-65
2022/08/15 11:43:22;;;;;;;6.68;4.22;;;;;;;34.90;22.16;98586.09;4452970;32;34174;-64
2022/08/15 11:45:52;;;;;;;8.82;4.30;;;;;;;34.20;23.16;98586.81;4458009;32;35009;-64
2022/08/15 11:48:22;;;;;;;6.05;3.97;;;;;;;33.56;23.42;98580.59;4454256;32;33774;-65
2022/08/15 11:51:08;;;;;;;8.30;3.58;;;;;;;33.60;22.85;98579.69;4460158;32;34933;-64
2022/08/15 11:54:11;;;;;;;7.37;4.18;;;;;;;33.11;23.08;98577.94;4451653;32;32528;-64
2022/08/15 11:57:02;;;;;;;7.12;3.95;;;;;;;33.51;22.83;98573.13;4452944;32;34460;-64
2022/08/15 11:59:32;;;;;;;18.58;4.87;;;;;;;33.04;23.84;98576.63;4462178;32;34710;-64
2022/08/15 12:02:12;;;;;;;9.23;4.07;;;;;;;32.87;24.80;98575.06;4445626;32;34960;-65
2022/08/15 12:05:09;;;;;;;6.18;4.18;;;;;;;32.85;25.25;98576.47;4455109;32;33997;-64
2022/08/15 12:08:00;;;;;;;6.22;4.20;;;;;;;33.44;24.73;98566.25;4440770;32;32470;-64
2022/08/15 12:10:47;;;;;;;6.65;4.10;;;;;;;33.39;24.76;98569.94;4451581;32;33665;-64
2022/08/15 12:13:24;;;;;;;6.05;4.07;;;;;;;33.17;24.84;98562.91;4453517;32;32571;-64
2022/08/15 12:16:02;;;;;;;6.53;4.00;;;;;;;33.54;24.38;98560.63;4443664;32;34075;-64
2022/08/15 12:18:50;;;;;;;7.53;4.12;;;;;;;33.48;24.24;98559.00;4449924;32;34411;-64
2022/08/15 12:21:23;;;;;;;6.57;3.60;;;;;;;33.88;23.79;98556.94;4451114;32;33359;-64
2022/08/15 12:23:56;;;;;;;5.82;3.97;;;;;;;34.00;22.83;98549.00;4445354;32;33272;-65
2022/08/15 12:26:27;;;;;;;5.82;3.58;;;;;;;34.11;23.08;98541.41;4460229;32;32805;-64
2022/08/15 12:29:15;;;;;;;5.68;3.72;;;;;;;34.41;22.42;98535.38;4453269;32;35115;-64
2022/08/15 12:31:48;;;;;;;6.55;4.15;;;;;;;34.36;23.44;98540.22;4452257;32;33464;-64
2022/08/15 12:34:23;;;;;;;6.37;3.50;;;;;;;34.43;22.33;98530.37;4454994;32;34809;-64
2022/08/15 12:36:56;;;;;;;6.65;3.62;;;;;;;34.69;22.60;98528.06;4442904;32;33562;-65